sensor_id;sensor_type;location;lat;lon;timestamp;pressure;altitude;pressure_sealevel;temperature;humidity
59411;BME280;45215;32.610;-115.482;2022-09-09T00:00:23;100127.75;;;22.76;38.71
59411;BME280;45215;32.610;-115.482;2022-09-09T00:02:57;100129.34;;;22.63;37.08
59411;BME280;45215;32.610;-115.482;2022-09-09T00:05:44;100128.53;;;22.69;39.66
59411;BME280;45215;32.610;-115.482;2022-09-09T00:08:25;100121.66;;;22.87;41.04
59411;BME280;45215;32.610;-115.482;2022-09-09T00:10:59;100123.97;;;22.77;38.30
59411;BME280;45215;32.610;-115.482;2022-09-09T00:13:48;100118.56;;;22.57;38.37
59411;BME280;45215;32.610;-115.482;2022-09-09T00:16:28;100118.38;;;22.71;40.48
59411;BME280;45215;32.610;-115.482;2022-09-09T00:19:06;100115.44;;;22.80;39.79
59411;BME280;45215;32.610;-115.482;2022-09-09T00:21:36;100124.34;;;22.67;37.13
59411;BME280;45215;32.610;-115.482;2022-09-09T00:24:26;100120.00;;;22.59;38.57
59411;BME280;45215;32.610;-115.482;2022-09-09T00:27:11;100118.56;;;22.77;41.16
59411;BME280;45215;32.610;-115.482;2022-09-09T00:29:47;100098.19;;;22.67;39.34
59411;BME280;45215;32.610;-115.482;2022-09-09T00:32:18;100118.34;;;22.65;37.29
59411;BME280;45215;32.610;-115.482;2022-09-09T00:35:18;100109.63;;;22.76;40.74
59411;BME280;45215;32.610;-115.482;2022-09-09T00:37:48;100111.06;;;22.92;41.04
59411;BME280;45215;32.610;-115.482;2022-09-09T00:43:16;100101.50;;;22.63;38.41
59411;BME280;45215;32.610;-115.482;2022-09-09T00:49:14;100075.72;;;22.73;39.37
59411;BME280;45215;32.610;-115.482;2022-09-09T00:57:30;100062.41;;;22.72;40.65
59411;BME280;45215;32.610;-115.482;2022-09-09T01:03:38;100092.78;;;22.67;39.08
59411;BME280;45215;32.610;-115.482;2022-09-09T01:06:27;100090.91;;;22.88;40.94
59411;BME280;45215;32.610;-115.482;2022-09-09T01:09:20;100080.06;;;22.81;37.93
59411;BME280;45215;32.610;-115.482;2022-09-09T01:17:09;100084.63;;;22.94;40.16
59411;BME280;45215;32.610;-115.482;2022-09-09T01:22:42;100077.81;;;22.71;39.71
59411;BME280;45215;32.610;-115.482;2022-09-09T01:25:30;100076.09;;;22.97;42.70
59411;BME280;45215;32.610;-115.482;2022-09-09T01:28:03;100076.94;;;22.91;38.57
59411;BME280;45215;32.610;-115.482;2022-09-09T01:30:30;100072.81;;;22.68;36.76
59411;BME280;45215;32.610;-115.482;2022-09-09T01:32:59;100078.66;;;22.79;40.85
59411;BME280;45215;32.610;-115.482;2022-09-09T01:38:04;100067.56;;;22.87;37.54
59411;BME280;45215;32.610;-115.482;2022-09-09T01:40:31;100066.38;;;22.69;37.56
59411;BME280;45215;32.610;-115.482;2022-09-09T01:42:58;100070.69;;;22.84;41.96
59411;BME280;45215;32.610;-115.482;2022-09-09T01:45:24;100060.69;;;22.98;40.58
59411;BME280;45215;32.610;-115.482;2022-09-09T01:47:52;100066.16;;;22.84;37.46
59411;BME280;45215;32.610;-115.482;2022-09-09T01:53:59;100070.91;;;22.89;42.85
59411;BME280;45215;32.610;-115.482;2022-09-09T01:56:51;100062.78;;;22.89;38.70
59411;BME280;45215;32.610;-115.482;2022-09-09T01:59:45;100062.00;;;22.68;36.82
59411;BME280;45215;32.610;-115.482;2022-09-09T02:08:10;100071.13;;;22.81;37.13
59411;BME280;45215;32.610;-115.482;2022-09-09T02:10:45;100064.03;;;22.66;38.26
59411;BME280;45215;32.610;-115.482;2022-09-09T02:13:18;100068.44;;;22.81;40.94
59411;BME280;45215;32.610;-115.482;2022-09-09T02:18:28;100058.63;;;22.66;36.64
59411;BME280;45215;32.610;-115.482;2022-09-09T02:20:56;100081.13;;;22.73;38.87
59411;BME280;45215;32.610;-115.482;2022-09-09T02:23:24;100074.66;;;22.88;41.55
59411;BME280;45215;32.610;-115.482;2022-09-09T02:25:52;100068.63;;;22.86;38.25
59411;BME280;45215;32.610;-115.482;2022-09-09T02:28:21;100080.69;;;22.63;37.07
59411;BME280;45215;32.610;-115.482;2022-09-09T02:30:51;100088.00;;;22.76;40.74
59411;BME280;45215;32.610;-115.482;2022-09-09T02:33:25;100098.38;;;22.99;42.15
59411;BME280;45215;32.610;-115.482;2022-09-09T02:35:53;100103.59;;;22.87;38.01
59411;BME280;45215;32.610;-115.482;2022-09-09T02:38:26;100096.09;;;22.69;38.44
59411;BME280;45215;32.610;-115.482;2022-09-09T02:40:54;100111.91;;;22.86;41.13
59411;BME280;45215;32.610;-115.482;2022-09-09T02:43:20;100110.22;;;22.98;40.58
59411;BME280;45215;32.610;-115.482;2022-09-09T02:51:50;100123.97;;;22.97;42.17
59411;BME280;45215;32.610;-115.482;2022-09-09T02:54:28;100125.63;;;22.91;38.12
59411;BME280;45215;32.610;-115.482;2022-09-09T02:57:07;100141.88;;;22.71;37.86
59411;BME280;45215;32.610;-115.482;2022-09-09T02:59:35;100143.53;;;22.79;40.55
59411;BME280;45215;32.610;-115.482;2022-09-09T03:02:01;100146.44;;;22.97;41.10
59411;BME280;45215;32.610;-115.482;2022-09-09T03:04:27;100144.78;;;22.83;37.67
59411;BME280;45215;32.610;-115.482;2022-09-09T03:06:53;100154.97;;;22.67;37.88
59411;BME280;45215;32.610;-115.482;2022-09-09T03:09:19;100147.47;;;22.69;41.14
59411;BME280;45215;32.610;-115.482;2022-09-09T03:11:45;100158.06;;;22.98;40.88
59411;BME280;45215;32.610;-115.482;2022-09-09T03:14:12;100154.75;;;22.82;37.08
59411;BME280;45215;32.610;-115.482;2022-09-09T03:16:38;100165.13;;;22.65;38.55
59411;BME280;45215;32.610;-115.482;2022-09-09T03:19:04;100160.78;;;22.78;41.32
59411;BME280;45215;32.610;-115.482;2022-09-09T03:21:30;100164.13;;;22.93;39.95
59411;BME280;45215;32.610;-115.482;2022-09-09T03:23:56;100169.94;;;22.77;36.85
59411;BME280;45215;32.610;-115.482;2022-09-09T03:26:22;100169.06;;;22.63;38.98
59411;BME280;45215;32.610;-115.482;2022-09-09T03:28:49;100182.63;;;22.83;40.40
59411;BME280;45215;32.610;-115.482;2022-09-09T03:31:15;100178.06;;;22.90;39.43
59411;BME280;45215;32.610;-115.482;2022-09-09T03:33:41;100162.22;;;22.60;36.73
59411;BME280;45215;32.610;-115.482;2022-09-09T03:36:08;100184.31;;;22.70;39.88
59411;BME280;45215;32.610;-115.482;2022-09-09T03:38:34;100196.38;;;22.88;41.40
59411;BME280;45215;32.610;-115.482;2022-09-09T03:41:00;100192.63;;;22.89;38.44
59411;BME280;45215;32.610;-115.482;2022-09-09T03:43:28;100197.00;;;22.70;36.70
59411;BME280;45215;32.610;-115.482;2022-09-09T03:45:55;100170.94;;;22.56;39.88
59411;BME280;45215;32.610;-115.482;2022-09-09T03:48:23;100215.53;;;22.93;42.07
59411;BME280;45215;32.610;-115.482;2022-09-09T03:50:52;100206.34;;;22.81;38.17
59411;BME280;45215;32.610;-115.482;2022-09-09T03:53:21;100215.06;;;22.69;37.60
59411;BME280;45215;32.610;-115.482;2022-09-09T03:55:53;100215.69;;;22.78;40.05
59411;BME280;45215;32.610;-115.482;2022-09-09T03:58:26;100200.50;;;22.84;40.54
59411;BME280;45215;32.610;-115.482;2022-09-09T04:00:55;100213.84;;;22.79;37.09
59411;BME280;45215;32.610;-115.482;2022-09-09T04:03:23;100226.25;;;22.66;38.81
59411;BME280;45215;32.610;-115.482;2022-09-09T04:05:51;100217.16;;;22.81;40.29
59411;BME280;45215;32.610;-115.482;2022-09-09T04:08:18;100219.25;;;22.92;39.83
59411;BME280;45215;32.610;-115.482;2022-09-09T04:10:46;100209.22;;;22.66;36.87
59411;BME280;45215;32.610;-115.482;2022-09-09T04:13:13;100227.56;;;22.70;39.88
59411;BME280;45215;32.610;-115.482;2022-09-09T04:15:40;100230.28;;;22.90;42.65
59411;BME280;45215;32.610;-115.482;2022-09-09T04:18:06;100223.41;;;22.88;39.18
59411;BME280;45215;32.610;-115.482;2022-09-09T04:20:33;100237.13;;;22.73;36.96
59411;BME280;45215;32.610;-115.482;2022-09-09T04:22:59;100233.19;;;22.76;40.96
59411;BME280;45215;32.610;-115.482;2022-09-09T04:25:25;100231.75;;;22.93;43.13
59411;BME280;45215;32.610;-115.482;2022-09-09T04:27:55;100233.81;;;22.91;38.89
59411;BME280;45215;32.610;-115.482;2022-09-09T04:30:22;100218.34;;;22.58;36.74
59411;BME280;45215;32.610;-115.482;2022-09-09T04:32:48;100234.22;;;22.75;41.03
59411;BME280;45215;32.610;-115.482;2022-09-09T04:35:15;100236.94;;;22.94;42.99
59411;BME280;45215;32.610;-115.482;2022-09-09T04:37:41;100235.88;;;22.89;38.38
59411;BME280;45215;32.610;-115.482;2022-09-09T04:40:08;100231.50;;;22.68;37.68
59411;BME280;45215;32.610;-115.482;2022-09-09T04:42:38;100236.31;;;22.79;41.31
59411;BME280;45215;32.610;-115.482;2022-09-09T04:45:06;100240.91;;;22.99;41.94
59411;BME280;45215;32.610;-115.482;2022-09-09T04:47:33;100240.47;;;22.88;37.66
59411;BME280;45215;32.610;-115.482;2022-09-09T04:50:01;100239.41;;;22.69;37.90
59411;BME280;45215;32.610;-115.482;2022-09-09T04:52:27;100206.75;;;22.71;41.84
59411;BME280;45215;32.610;-115.482;2022-09-09T04:54:53;100239.84;;;23.00;40.25
59411;BME280;45215;32.610;-115.482;2022-09-09T04:57:20;100234.00;;;22.83;37.20
59411;BME280;45215;32.610;-115.482;2022-09-09T04:59:46;100237.34;;;22.71;39.19
59411;BME280;45215;32.610;-115.482;2022-09-09T05:02:13;100228.81;;;22.88;42.25
59411;BME280;45215;32.610;-115.482;2022-09-09T05:04:39;100226.94;;;22.95;40.09
59411;BME280;45215;32.610;-115.482;2022-09-09T05:07:06;100226.31;;;22.80;37.40
59411;BME280;45215;32.610;-115.482;2022-09-09T05:09:32;100238.97;;;22.72;39.27
59411;BME280;45215;32.610;-115.482;2022-09-09T05:11:58;100225.72;;;22.84;42.42
59411;BME280;45215;32.610;-115.482;2022-09-09T05:14:25;100215.91;;;22.83;39.30
59411;BME280;45215;32.610;-115.482;2022-09-09T05:16:52;100225.47;;;22.72;36.94
59411;BME280;45215;32.610;-115.482;2022-09-09T05:19:18;100206.28;;;22.61;39.96
59411;BME280;45215;32.610;-115.482;2022-09-09T05:21:45;100217.59;;;22.84;42.55
59411;BME280;45215;32.610;-115.482;2022-09-09T05:24:11;100222.38;;;22.89;39.36
59411;BME280;45215;32.610;-115.482;2022-09-09T05:26:37;100215.69;;;22.71;37.13
59411;BME280;45215;32.610;-115.482;2022-09-09T05:29:03;100225.47;;;22.72;40.69
59411;BME280;45215;32.610;-115.482;2022-09-09T05:31:30;100225.69;;;22.91;42.85
59411;BME280;45215;32.610;-115.482;2022-09-09T05:33:57;100219.03;;;22.87;38.42
59411;BME280;45215;32.610;-115.482;2022-09-09T05:36:24;100225.44;;;22.66;37.34
59411;BME280;45215;32.610;-115.482;2022-09-09T05:38:51;100191.72;;;22.55;41.64
59411;BME280;45215;32.610;-115.482;2022-09-09T05:41:19;100219.66;;;22.89;43.05
59411;BME280;45215;32.610;-115.482;2022-09-09T05:43:46;100223.19;;;22.83;38.51
59411;BME280;45215;32.610;-115.482;2022-09-09T05:46:18;100223.78;;;22.65;37.89
59411;BME280;45215;32.610;-115.482;2022-09-09T05:48:46;100227.97;;;22.74;42.01
59411;BME280;45215;32.610;-115.482;2022-09-09T05:51:20;100211.75;;;22.94;42.07
59411;BME280;45215;32.610;-115.482;2022-09-09T05:53:50;100210.91;;;22.80;38.20
59411;BME280;45215;32.610;-115.482;2022-09-09T05:56:19;100218.81;;;22.68;39.18
59411;BME280;45215;32.610;-115.482;2022-09-09T05:58:48;100222.16;;;22.84;42.32
59411;BME280;45215;32.610;-115.482;2022-09-09T06:01:20;100216.53;;;22.92;40.15
59411;BME280;45215;32.610;-115.482;2022-09-09T06:03:47;100227.97;;;22.74;37.31
59411;BME280;45215;32.610;-115.482;2022-09-09T06:06:16;100229.22;;;22.71;40.89
59411;BME280;45215;32.610;-115.482;2022-09-09T06:08:44;100231.13;;;22.91;43.41
59411;BME280;45215;32.610;-115.482;2022-09-09T06:11:22;100228.81;;;22.88;39.01
59411;BME280;45215;32.610;-115.482;2022-09-09T06:13:49;100235.03;;;22.68;38.04
59411;BME280;45215;32.610;-115.482;2022-09-09T06:16:22;100230.06;;;22.79;41.82
59411;BME280;45215;32.610;-115.482;2022-09-09T06:18:55;100233.22;;;22.95;42.59
59411;BME280;45215;32.610;-115.482;2022-09-09T06:21:26;100230.06;;;22.85;38.68
59411;BME280;45215;32.610;-115.482;2022-09-09T06:23:53;100230.84;;;22.59;38.70
59411;BME280;45215;32.610;-115.482;2022-09-09T06:26:24;100247.94;;;22.80;42.07
59411;BME280;45215;32.610;-115.482;2022-09-09T06:28:53;100241.50;;;22.94;41.37
59411;BME280;45215;32.610;-115.482;2022-09-09T06:31:22;100239.63;;;22.75;38.18
59411;BME280;45215;32.610;-115.482;2022-09-09T06:33:53;100246.25;;;22.65;39.84
59411;BME280;45215;32.610;-115.482;2022-09-09T06:36:23;100221.34;;;22.70;43.29
59411;BME280;45215;32.610;-115.482;2022-09-09T06:38:49;100242.34;;;22.94;41.71
59411;BME280;45215;32.610;-115.482;2022-09-09T06:41:18;100230.50;;;22.76;38.47
59411;BME280;45215;32.610;-115.482;2022-09-09T06:43:47;100245.84;;;22.68;40.46
59411;BME280;45215;32.610;-115.482;2022-09-09T06:46:25;100227.56;;;22.70;43.61
59411;BME280;45215;32.610;-115.482;2022-09-09T06:48:56;100272.31;;;22.93;40.45
59411;BME280;45215;32.610;-115.482;2022-09-09T06:51:26;100254.59;;;22.70;38.23
59411;BME280;45215;32.610;-115.482;2022-09-09T06:53:55;100257.13;;;22.79;42.76
59411;BME280;45215;32.610;-115.482;2022-09-09T06:56:42;100256.69;;;22.95;44.74
59411;BME280;45215;32.610;-115.482;2022-09-09T06:59:09;100242.53;;;22.80;40.10
59411;BME280;45215;32.610;-115.482;2022-09-09T07:01:40;100258.31;;;22.69;39.24
59411;BME280;45215;32.610;-115.482;2022-09-09T07:04:07;100258.78;;;22.80;43.53
59411;BME280;45215;32.610;-115.482;2022-09-09T07:06:39;100264.19;;;23.00;43.66
59411;BME280;45215;32.610;-115.482;2022-09-09T07:09:08;100269.41;;;22.88;39.34
59411;BME280;45215;32.610;-115.482;2022-09-09T07:11:41;100264.59;;;22.70;39.29
59411;BME280;45215;32.610;-115.482;2022-09-09T07:14:08;100276.66;;;22.81;43.32
59411;BME280;45215;32.610;-115.482;2022-09-09T07:16:34;100278.97;;;22.97;44.01
59411;BME280;45215;32.610;-115.482;2022-09-09T07:19:03;100270.63;;;22.79;39.56
59411;BME280;45215;32.610;-115.482;2022-09-09T07:21:31;100287.88;;;22.78;40.71
59411;BME280;45215;32.610;-115.482;2022-09-09T07:23:58;100298.13;;;22.95;42.74
59411;BME280;45215;32.610;-115.482;2022-09-09T07:26:26;100293.34;;;23.11;42.33
59411;BME280;45215;32.610;-115.482;2022-09-09T07:28:53;100298.94;;;22.96;39.49
59411;BME280;45215;32.610;-115.482;2022-09-09T07:31:27;100288.72;;;22.71;39.70
59411;BME280;45215;32.610;-115.482;2022-09-09T07:33:53;100296.03;;;22.91;43.81
59411;BME280;45215;32.610;-115.482;2022-09-09T07:36:24;100295.41;;;23.02;41.89
59411;BME280;45215;32.610;-115.482;2022-09-09T07:38:54;100301.66;;;22.96;39.45
59411;BME280;45215;32.610;-115.482;2022-09-09T07:41:23;100307.44;;;22.80;39.24
59411;BME280;45215;32.610;-115.482;2022-09-09T07:43:51;100282.09;;;22.87;43.27
59411;BME280;45215;32.610;-115.482;2022-09-09T07:46:21;100297.28;;;23.08;42.33
59411;BME280;45215;32.610;-115.482;2022-09-09T07:48:50;100302.47;;;22.97;39.10
59411;BME280;45215;32.610;-115.482;2022-09-09T07:51:40;100302.03;;;22.80;39.04
59411;BME280;45215;32.610;-115.482;2022-09-09T07:54:07;100300.59;;;22.97;43.10
59411;BME280;45215;32.610;-115.482;2022-09-09T07:56:35;100279.59;;;23.06;41.13
59411;BME280;45215;32.610;-115.482;2022-09-09T07:59:03;100283.75;;;22.95;38.34
59411;BME280;45215;32.610;-115.482;2022-09-09T08:01:34;100275.81;;;22.87;40.91
59411;BME280;45215;32.610;-115.482;2022-09-09T08:04:12;100272.53;;;23.05;43.17
59411;BME280;45215;32.610;-115.482;2022-09-09T08:07:00;100267.94;;;22.92;39.56
59411;BME280;45215;32.610;-115.482;2022-09-09T08:09:29;100282.06;;;22.81;38.84
59411;BME280;45215;32.610;-115.482;2022-09-09T08:11:56;100276.88;;;22.79;42.29
59411;BME280;45215;32.610;-115.482;2022-09-09T08:14:23;100274.59;;;23.03;42.83
59411;BME280;45215;32.610;-115.482;2022-09-09T08:16:50;100252.53;;;22.79;38.91
59411;BME280;45215;32.610;-115.482;2022-09-09T08:19:18;100266.44;;;22.69;38.74
59411;BME280;45215;32.610;-115.482;2022-09-09T08:21:45;100273.75;;;22.82;42.04
59411;BME280;45215;32.610;-115.482;2022-09-09T08:24:12;100269.81;;;22.98;42.64
59411;BME280;45215;32.610;-115.482;2022-09-09T08:26:47;100262.31;;;22.87;38.74
59411;BME280;45215;32.610;-115.482;2022-09-09T08:29:17;100262.91;;;22.69;39.52
59411;BME280;45215;32.610;-115.482;2022-09-09T08:31:52;100257.72;;;22.81;42.57
59411;BME280;45215;32.610;-115.482;2022-09-09T08:34:21;100261.69;;;22.98;41.84
59411;BME280;45215;32.610;-115.482;2022-09-09T08:36:48;100262.31;;;22.80;38.62
59411;BME280;45215;32.610;-115.482;2022-09-09T08:39:17;100260.44;;;22.67;41.14
59411;BME280;45215;32.610;-115.482;2022-09-09T08:42:45;100260.00;;;22.84;43.10
59411;BME280;45215;32.610;-115.482;2022-09-09T08:45:24;100266.69;;;22.88;40.35
59411;BME280;45215;32.610;-115.482;2022-09-09T08:58:23;100259.19;;;22.70;41.20
59411;BME280;45215;32.610;-115.482;2022-09-09T09:12:25;100250.69;;;22.93;41.91
59411;BME280;45215;32.610;-115.482;2022-09-09T09:14:53;100245.84;;;22.68;38.61
59411;BME280;45215;32.610;-115.482;2022-09-09T09:17:24;100250.81;;;22.65;42.27
59411;BME280;45215;32.610;-115.482;2022-09-09T09:19:52;100252.13;;;22.89;44.12
59411;BME280;45215;32.610;-115.482;2022-09-09T09:22:22;100261.50;;;22.93;40.80
59411;BME280;45215;32.610;-115.482;2022-09-09T09:25:16;100257.50;;;22.69;39.33
59411;BME280;45215;32.610;-115.482;2022-09-09T09:27:59;100263.75;;;22.76;43.04
59411;BME280;45215;32.610;-115.482;2022-09-09T09:30:37;100254.63;;;22.90;43.54
59411;BME280;45215;32.610;-115.482;2022-09-09T09:33:27;100259.19;;;22.77;38.76
59411;BME280;45215;32.610;-115.482;2022-09-09T09:35:55;100250.00;;;22.64;41.25
59411;BME280;45215;32.610;-115.482;2022-09-09T09:38:26;100233.16;;;22.69;44.06
59411;BME280;45215;32.610;-115.482;2022-09-09T09:40:55;100254.22;;;22.93;41.52
59411;BME280;45215;32.610;-115.482;2022-09-09T09:43:33;100261.66;;;22.71;38.64
59411;BME280;45215;32.610;-115.482;2022-09-09T09:46:00;100255.63;;;22.69;42.42
59411;BME280;45215;32.610;-115.482;2022-09-09T09:48:29;100259.59;;;22.87;44.71
59411;BME280;45215;32.610;-115.482;2022-09-09T09:51:11;100233.19;;;22.82;40.51
59411;BME280;45215;32.610;-115.482;2022-09-09T09:53:41;100246.25;;;22.65;39.96
59411;BME280;45215;32.610;-115.482;2022-09-09T09:56:09;100260.84;;;22.78;43.55
59411;BME280;45215;32.610;-115.482;2022-09-09T09:58:50;100232.97;;;22.84;43.84
59411;BME280;45215;32.610;-115.482;2022-09-09T10:01:42;100257.13;;;22.79;39.14
59411;BME280;45215;32.610;-115.482;2022-09-09T10:04:22;100249.78;;;22.66;41.75
59411;BME280;45215;32.610;-115.482;2022-09-09T10:06:50;100247.34;;;22.84;44.36
59411;BME280;45215;32.610;-115.482;2022-09-09T10:09:30;100220.69;;;22.75;41.26
59411;BME280;45215;32.610;-115.482;2022-09-09T10:15:34;100237.97;;;22.73;43.17
59411;BME280;45215;32.610;-115.482;2022-09-09T10:21:32;100236.50;;;22.71;38.97
59411;BME280;45215;32.610;-115.482;2022-09-09T10:27:20;100223.81;;;22.91;44.25
59411;BME280;45215;32.610;-115.482;2022-09-09T10:30:05;100214.25;;;22.76;39.28
59411;BME280;45215;32.610;-115.482;2022-09-09T10:46:26;100189.09;;;22.88;44.12
59411;BME280;45215;32.610;-115.482;2022-09-09T10:52:00;100186.34;;;22.62;43.04
59411;BME280;45215;32.610;-115.482;2022-09-09T10:59:53;100206.94;;;22.63;39.84
59411;BME280;45215;32.610;-115.482;2022-09-09T11:02:28;100203.41;;;22.62;43.47
59411;BME280;45215;32.610;-115.482;2022-09-09T11:07:41;100208.22;;;22.80;40.78
59411;BME280;45215;32.610;-115.482;2022-09-09T11:10:34;100202.13;;;22.58;41.43
59411;BME280;45215;32.610;-115.482;2022-09-09T11:18:49;100208.81;;;22.62;40.30
59411;BME280;45215;32.610;-115.482;2022-09-09T11:21:32;100213.41;;;22.68;43.49
59411;BME280;45215;32.610;-115.482;2022-09-09T11:26:59;100204.28;;;22.76;40.37
59411;BME280;45215;32.610;-115.482;2022-09-09T11:35:39;100202.19;;;22.85;42.47
59411;BME280;45215;32.610;-115.482;2022-09-09T11:38:04;100200.06;;;22.60;41.25
59411;BME280;45215;32.610;-115.482;2022-09-09T11:40:35;100213.00;;;22.71;44.61
59411;BME280;45215;32.610;-115.482;2022-09-09T11:43:03;100218.00;;;22.88;45.66
59411;BME280;45215;32.610;-115.482;2022-09-09T11:45:32;100197.00;;;22.70;40.92
59411;BME280;45215;32.610;-115.482;2022-09-09T11:48:03;100219.63;;;22.62;41.74
59411;BME280;45215;32.610;-115.482;2022-09-09T11:50:34;100218.81;;;22.75;44.62
59411;BME280;45215;32.610;-115.482;2022-09-09T11:53:18;100216.97;;;22.89;43.88
59411;BME280;45215;32.610;-115.482;2022-09-09T11:55:47;100221.09;;;22.71;39.77
59411;BME280;45215;32.610;-115.482;2022-09-09T11:58:17;100233.53;;;22.59;42.89
59411;BME280;45215;32.610;-115.482;2022-09-09T12:00:46;100242.13;;;22.76;45.19
59411;BME280;45215;32.610;-115.482;2022-09-09T12:09:12;100239.78;;;22.60;44.61
59411;BME280;45215;32.610;-115.482;2022-09-09T12:11:41;100256.28;;;22.85;46.00
59411;BME280;45215;32.610;-115.482;2022-09-09T12:14:34;100248.78;;;22.73;41.54
59411;BME280;45215;32.610;-115.482;2022-09-09T12:19:42;100252.94;;;22.76;45.07
59411;BME280;45215;32.610;-115.482;2022-09-09T12:28:22;100254.34;;;22.65;44.34
59411;BME280;45215;32.610;-115.482;2022-09-09T12:31:09;100256.28;;;22.85;46.25
59411;BME280;45215;32.610;-115.482;2022-09-09T12:33:44;100271.25;;;22.81;41.48
59411;BME280;45215;32.610;-115.482;2022-09-09T12:36:19;100260.56;;;22.59;42.10
59411;BME280;45215;32.610;-115.482;2022-09-09T12:38:48;100271.66;;;22.71;45.47
59411;BME280;45215;32.610;-115.482;2022-09-09T12:41:20;100269.59;;;22.86;45.29
59411;BME280;45215;32.610;-115.482;2022-09-09T12:43:47;100266.66;;;22.68;40.78
59411;BME280;45215;32.610;-115.482;2022-09-09T12:46:32;100269.09;;;22.56;42.50
59411;BME280;45215;32.610;-115.482;2022-09-09T12:49:02;100260.81;;;22.64;44.88
59411;BME280;45215;32.610;-115.482;2022-09-09T12:51:32;100283.34;;;22.85;44.05
59411;BME280;45215;32.610;-115.482;2022-09-09T12:53:59;100277.03;;;22.64;40.05
59411;BME280;45215;32.610;-115.482;2022-09-09T12:56:29;100268.00;;;22.44;43.27
59411;BME280;45215;32.610;-115.482;2022-09-09T12:58:57;100279.94;;;22.69;45.31
59411;BME280;45215;32.610;-115.482;2022-09-09T13:01:29;100265.84;;;22.74;44.31
59411;BME280;45215;32.610;-115.482;2022-09-09T13:03:57;100279.72;;;22.64;40.65
59411;BME280;45215;32.610;-115.482;2022-09-09T13:06:26;100268.47;;;22.54;43.70
59411;BME280;45215;32.610;-115.482;2022-09-09T13:08:55;100274.13;;;22.72;45.64
59411;BME280;45215;32.610;-115.482;2022-09-09T13:11:32;100272.94;;;22.82;43.96
59411;BME280;45215;32.610;-115.482;2022-09-09T13:14:01;100269.50;;;22.60;40.81
59411;BME280;45215;32.610;-115.482;2022-09-09T13:16:30;100262.00;;;22.55;44.17
59411;BME280;45215;32.610;-115.482;2022-09-09T13:19:17;100266.03;;;22.72;45.66
59411;BME280;45215;32.610;-115.482;2022-09-09T13:21:43;100248.78;;;22.80;43.99
59411;BME280;45215;32.610;-115.482;2022-09-09T13:24:31;100247.06;;;22.59;41.64
59411;BME280;45215;32.610;-115.482;2022-09-09T13:27:04;100230.41;;;22.49;44.80
59411;BME280;45215;32.610;-115.482;2022-09-09T13:29:32;100253.78;;;22.77;46.40
59411;BME280;45215;32.610;-115.482;2022-09-09T13:32:16;100266.88;;;22.80;43.00
59411;BME280;45215;32.610;-115.482;2022-09-09T13:34:51;100262.00;;;22.55;42.41
59411;BME280;45215;32.610;-115.482;2022-09-09T13:39:55;100273.34;;;22.79;46.90
59411;BME280;45215;32.610;-115.482;2022-09-09T13:42:27;100275.41;;;22.77;43.09
59411;BME280;45215;32.610;-115.482;2022-09-09T13:44:55;100272.63;;;22.50;42.83
59411;BME280;45215;32.610;-115.482;2022-09-09T13:47:35;100281.56;;;22.64;45.72
59411;BME280;45215;32.610;-115.482;2022-09-09T13:50:30;100276.66;;;22.81;47.20
59411;BME280;45215;32.610;-115.482;2022-09-09T13:52:58;100270.41;;;22.73;42.50
59411;BME280;45215;32.610;-115.482;2022-09-09T13:55:28;100265.13;;;22.52;43.62
59411;BME280;45215;32.610;-115.482;2022-09-09T13:58:00;100275.75;;;22.67;46.27
59411;BME280;45215;32.610;-115.482;2022-09-09T14:00:28;100274.78;;;22.81;47.12
59411;BME280;45215;32.610;-115.482;2022-09-09T14:02:54;100277.06;;;22.71;42.31
59411;BME280;45215;32.610;-115.482;2022-09-09T14:05:21;100281.97;;;22.54;43.72
59411;BME280;45215;32.610;-115.482;2022-09-09T14:07:48;100285.75;;;22.66;46.78
59411;BME280;45215;32.610;-115.482;2022-09-09T14:10:15;100289.97;;;22.82;48.08
59411;BME280;45215;32.610;-115.482;2022-09-09T14:12:41;100289.53;;;22.72;43.04
59411;BME280;45215;32.610;-115.482;2022-09-09T14:15:10;100286.94;;;22.44;45.13
59411;BME280;45215;32.610;-115.482;2022-09-09T14:17:38;100300.97;;;22.67;48.11
59411;BME280;45215;32.610;-115.482;2022-09-09T14:20:05;100309.56;;;22.84;49.78
59411;BME280;45215;32.610;-115.482;2022-09-09T14:22:37;100304.56;;;23.01;50.61
59411;BME280;45215;32.610;-115.482;2022-09-09T14:25:05;100293.97;;;23.13;51.47
59411;BME280;45215;32.610;-115.482;2022-09-09T14:27:32;100278.78;;;23.18;51.58
59411;BME280;45215;32.610;-115.482;2022-09-09T14:29:58;100281.47;;;23.25;51.82
59411;BME280;45215;32.610;-115.482;2022-09-09T14:32:26;100295.41;;;23.42;51.85
59411;BME280;45215;32.610;-115.482;2022-09-09T14:34:52;100290.66;;;23.51;52.24
59411;BME280;45215;32.610;-115.482;2022-09-09T14:37:18;100285.84;;;23.59;51.96
59411;BME280;45215;32.610;-115.482;2022-09-09T14:39:46;100286.66;;;23.67;51.83
59411;BME280;45215;32.610;-115.482;2022-09-09T14:42:14;100278.53;;;23.73;51.40
59411;BME280;45215;32.610;-115.482;2022-09-09T14:44:40;100264.78;;;23.81;51.42
59411;BME280;45215;32.610;-115.482;2022-09-09T14:47:07;100236.03;;;23.74;50.74
59411;BME280;45215;32.610;-115.482;2022-09-09T14:49:37;100256.59;;;23.95;50.40
59411;BME280;45215;32.610;-115.482;2022-09-09T14:52:04;100264.72;;;24.01;50.14
59411;BME280;45215;32.610;-115.482;2022-09-09T14:54:31;100257.81;;;24.05;49.66